sensor_id;sensor_type;location;lat;lon;timestamp;P1;durP1;ratioP1;P2;durP2;ratioP2
6735;SDS011;3405;50.576;12.364;2024-03-08T00:01:43;5.88;;;4.88;;
6735;SDS011;3405;50.576;12.364;2024-03-08T00:04:10;6.72;;;4.70;;
6735;SDS011;3405;50.576;12.364;2024-03-08T00:06:35;5.10;;;4.47;;
6735;SDS011;3405;50.576;12.364;2024-03-08T00:09:01;7.50;;;4.75;;
6735;SDS011;3405;50.576;12.364;2024-03-08T00:11:27;5.10;;;4.30;;
6735;SDS011;3405;50.576;12.364;2024-03-08T00:13:53;6.68;;;4.63;;
6735;SDS011;3405;50.576;12.364;2024-03-08T00:16:19;6.65;;;4.90;;
6735;SDS011;3405;50.576;12.364;2024-03-08T00:18:45;7.10;;;4.47;;
6735;SDS011;3405;50.576;12.364;2024-03-08T00:21:14;6.55;;;4.60;;
6735;SDS011;3405;50.576;12.364;2024-03-08T00:23:40;5.55;;;4.40;;
6735;SDS011;3405;50.576;12.364;2024-03-08T00:26:06;6.28;;;4.57;;
6735;SDS011;3405;50.576;12.364;2024-03-08T00:28:32;6.95;;;4.90;;
6735;SDS011;3405;50.576;12.364;2024-03-08T00:31:01;6.00;;;3.92;;
6735;SDS011;3405;50.576;12.364;2024-03-08T00:33:27;6.22;;;4.40;;
6735;SDS011;3405;50.576;12.364;2024-03-08T00:35:53;5.63;;;4.20;;
6735;SDS011;3405;50.576;12.364;2024-03-08T00:38:19;6.57;;;4.80;;
6735;SDS011;3405;50.576;12.364;2024-03-08T00:40:45;5.28;;;4.40;;
6735;SDS011;3405;50.576;12.364;2024-03-08T00:43:11;6.18;;;5.20;;
6735;SDS011;3405;50.576;12.364;2024-03-08T00:45:38;5.07;;;4.25;;
6735;SDS011;3405;50.576;12.364;2024-03-08T00:48:06;6.80;;;4.93;;
6735;SDS011;3405;50.576;12.364;2024-03-08T00:50:32;5.32;;;4.00;;
6735;SDS011;3405;50.576;12.364;2024-03-08T00:52:58;6.22;;;4.80;;
6735;SDS011;3405;50.576;12.364;2024-03-08T00:55:25;6.40;;;4.88;;
6735;SDS011;3405;50.576;12.364;2024-03-08T00:57:50;5.97;;;4.47;;
6735;SDS011;3405;50.576;12.364;2024-03-08T01:00:18;6.07;;;4.35;;
6735;SDS011;3405;50.576;12.364;2024-03-08T01:02:46;5.97;;;4.30;;
6735;SDS011;3405;50.576;12.364;2024-03-08T01:05:11;6.30;;;4.32;;
6735;SDS011;3405;50.576;12.364;2024-03-08T01:07:38;5.15;;;4.28;;
6735;SDS011;3405;50.576;12.364;2024-03-08T01:10:04;4.90;;;4.32;;
6735;SDS011;3405;50.576;12.364;2024-03-08T01:12:34;6.03;;;4.30;;
6735;SDS011;3405;50.576;12.364;2024-03-08T01:15:00;6.22;;;4.68;;
6735;SDS011;3405;50.576;12.364;2024-03-08T01:17:26;5.55;;;4.50;;
6735;SDS011;3405;50.576;12.364;2024-03-08T01:19:52;6.55;;;4.70;;
6735;SDS011;3405;50.576;12.364;2024-03-08T01:22:21;4.75;;;4.18;;
6735;SDS011;3405;50.576;12.364;2024-03-08T01:24:47;5.38;;;4.35;;
6735;SDS011;3405;50.576;12.364;2024-03-08T01:27:13;5.30;;;4.40;;
6735;SDS011;3405;50.576;12.364;2024-03-08T01:29:39;5.97;;;4.45;;
6735;SDS011;3405;50.576;12.364;2024-03-08T01:32:05;7.20;;;5.05;;
6735;SDS011;3405;50.576;12.364;2024-03-08T01:34:31;5.68;;;4.25;;
6735;SDS011;3405;50.576;12.364;2024-03-08T01:36:58;5.53;;;4.72;;
6735;SDS011;3405;50.576;12.364;2024-03-08T01:39:24;5.70;;;4.43;;
6735;SDS011;3405;50.576;12.364;2024-03-08T01:41:51;4.80;;;4.30;;
6735;SDS011;3405;50.576;12.364;2024-03-08T01:44:17;5.80;;;4.50;;
6735;SDS011;3405;50.576;12.364;2024-03-08T01:46:46;6.57;;;4.78;;
6735;SDS011;3405;50.576;12.364;2024-03-08T01:49:13;6.28;;;4.82;;
6735;SDS011;3405;50.576;12.364;2024-03-08T01:51:40;6.25;;;4.63;;
6735;SDS011;3405;50.576;12.364;2024-03-08T01:54:07;4.97;;;4.47;;
6735;SDS011;3405;50.576;12.364;2024-03-08T01:56:37;5.47;;;4.40;;
6735;SDS011;3405;50.576;12.364;2024-03-08T01:59:04;5.55;;;4.22;;
6735;SDS011;3405;50.576;12.364;2024-03-08T02:01:32;5.82;;;4.60;;
6735;SDS011;3405;50.576;12.364;2024-03-08T02:03:58;4.97;;;4.38;;
6735;SDS011;3405;50.576;12.364;2024-03-08T02:06:25;6.35;;;4.97;;
6735;SDS011;3405;50.576;12.364;2024-03-08T02:08:51;4.82;;;4.03;;
6735;SDS011;3405;50.576;12.364;2024-03-08T02:11:17;5.40;;;4.50;;
6735;SDS011;3405;50.576;12.364;2024-03-08T02:13:43;6.65;;;4.70;;
6735;SDS011;3405;50.576;12.364;2024-03-08T02:16:09;6.30;;;4.07;;
6735;SDS011;3405;50.576;12.364;2024-03-08T02:18:35;4.97;;;4.20;;
6735;SDS011;3405;50.576;12.364;2024-03-08T02:21:04;4.97;;;3.97;;
6735;SDS011;3405;50.576;12.364;2024-03-08T02:23:30;4.85;;;3.95;;
6735;SDS011;3405;50.576;12.364;2024-03-08T02:25:56;4.75;;;4.25;;
6735;SDS011;3405;50.576;12.364;2024-03-08T02:28:22;5.45;;;4.18;;
6735;SDS011;3405;50.576;12.364;2024-03-08T02:30:50;5.60;;;4.25;;
6735;SDS011;3405;50.576;12.364;2024-03-08T02:33:16;4.50;;;4.07;;
6735;SDS011;3405;50.576;12.364;2024-03-08T02:35:42;6.05;;;4.75;;
6735;SDS011;3405;50.576;12.364;2024-03-08T02:38:21;5.55;;;4.13;;
6735;SDS011;3405;50.576;12.364;2024-03-08T02:40:48;5.97;;;4.32;;
6735;SDS011;3405;50.576;12.364;2024-03-08T02:43:14;6.45;;;4.60;;
6735;SDS011;3405;50.576;12.364;2024-03-08T02:45:41;6.18;;;4.68;;
6735;SDS011;3405;50.576;12.364;2024-03-08T02:48:07;7.50;;;4.53;;
6735;SDS011;3405;50.576;12.364;2024-03-08T02:50:33;5.65;;;4.25;;
6735;SDS011;3405;50.576;12.364;2024-03-08T02:53:02;5.45;;;4.47;;
6735;SDS011;3405;50.576;12.364;2024-03-08T02:55:28;6.28;;;4.38;;
6735;SDS011;3405;50.576;12.364;2024-03-08T02:57:54;5.63;;;4.30;;
6735;SDS011;3405;50.576;12.364;2024-03-08T03:00:21;6.05;;;4.40;;
6735;SDS011;3405;50.576;12.364;2024-03-08T03:02:49;4.85;;;3.97;;
6735;SDS011;3405;50.576;12.364;2024-03-08T03:05:19;5.63;;;4.63;;
6735;SDS011;3405;50.576;12.364;2024-03-08T03:07:45;6.18;;;4.40;;
6735;SDS011;3405;50.576;12.364;2024-03-08T03:10:11;5.82;;;4.47;;
6735;SDS011;3405;50.576;12.364;2024-03-08T03:12:42;5.28;;;4.22;;
6735;SDS011;3405;50.576;12.364;2024-03-08T03:15:08;4.72;;;3.97;;
6735;SDS011;3405;50.576;12.364;2024-03-08T03:17:34;5.75;;;4.55;;
6735;SDS011;3405;50.576;12.364;2024-03-08T03:20:00;5.30;;;4.20;;
6735;SDS011;3405;50.576;12.364;2024-03-08T03:22:34;5.20;;;3.72;;
6735;SDS011;3405;50.576;12.364;2024-03-08T03:25:00;5.30;;;4.22;;
6735;SDS011;3405;50.576;12.364;2024-03-08T03:27:27;5.80;;;4.25;;
6735;SDS011;3405;50.576;12.364;2024-03-08T03:29:55;4.30;;;3.83;;
6735;SDS011;3405;50.576;12.364;2024-03-08T03:32:22;4.35;;;3.90;;
6735;SDS011;3405;50.576;12.364;2024-03-08T03:34:48;6.03;;;4.30;;
6735;SDS011;3405;50.576;12.364;2024-03-08T03:37:17;4.53;;;4.13;;
6735;SDS011;3405;50.576;12.364;2024-03-08T03:39:44;5.57;;;4.32;;
6735;SDS011;3405;50.576;12.364;2024-03-08T03:42:17;5.80;;;4.18;;
6735;SDS011;3405;50.576;12.364;2024-03-08T03:44:46;6.50;;;4.28;;
6735;SDS011;3405;50.576;12.364;2024-03-08T03:47:13;5.35;;;4.13;;
6735;SDS011;3405;50.576;12.364;2024-03-08T03:49:39;5.53;;;4.45;;
6735;SDS011;3405;50.576;12.364;2024-03-08T03:52:05;4.32;;;3.78;;
6735;SDS011;3405;50.576;12.364;2024-03-08T03:54:31;5.45;;;4.20;;
6735;SDS011;3405;50.576;12.364;2024-03-08T03:56:58;4.72;;;4.22;;
6735;SDS011;3405;50.576;12.364;2024-03-08T03:59:26;4.85;;;4.10;;
6735;SDS011;3405;50.576;12.364;2024-03-08T04:01:52;7.40;;;4.75;;
6735;SDS011;3405;50.576;12.364;2024-03-08T04:04:19;4.70;;;4.03;;
6735;SDS011;3405;50.576;12.364;2024-03-08T04:06:45;5.50;;;4.38;;
6735;SDS011;3405;50.576;12.364;2024-03-08T04:09:11;6.38;;;4.28;;
6735;SDS011;3405;50.576;12.364;2024-03-08T04:11:37;4.82;;;4.15;;
6735;SDS011;3405;50.576;12.364;2024-03-08T04:14:03;5.05;;;4.15;;
6735;SDS011;3405;50.576;12.364;2024-03-08T04:16:30;5.80;;;4.47;;
6735;SDS011;3405;50.576;12.364;2024-03-08T04:18:56;5.22;;;4.32;;
6735;SDS011;3405;50.576;12.364;2024-03-08T04:21:22;7.97;;;4.90;;
6735;SDS011;3405;50.576;12.364;2024-03-08T04:23:48;8.38;;;4.63;;
6735;SDS011;3405;50.576;12.364;2024-03-08T04:26:14;7.30;;;4.97;;
6735;SDS011;3405;50.576;12.364;2024-03-08T04:28:40;5.43;;;4.32;;
6735;SDS011;3405;50.576;12.364;2024-03-08T04:31:06;5.57;;;4.18;;
6735;SDS011;3405;50.576;12.364;2024-03-08T04:33:32;9.32;;;4.10;;
6735;SDS011;3405;50.576;12.364;2024-03-08T04:36:00;7.25;;;4.28;;
6735;SDS011;3405;50.576;12.364;2024-03-08T04:38:29;5.45;;;4.38;;
6735;SDS011;3405;50.576;12.364;2024-03-08T04:40:55;7.95;;;3.95;;
6735;SDS011;3405;50.576;12.364;2024-03-08T04:43:21;8.88;;;4.68;;
6735;SDS011;3405;50.576;12.364;2024-03-08T04:45:50;13.70;;;4.80;;
6735;SDS011;3405;50.576;12.364;2024-03-08T04:48:16;7.50;;;4.38;;
6735;SDS011;3405;50.576;12.364;2024-03-08T04:50:42;6.40;;;4.15;;
6735;SDS011;3405;50.576;12.364;2024-03-08T04:53:09;18.67;;;4.68;;
6735;SDS011;3405;50.576;12.364;2024-03-08T04:55:35;7.68;;;4.45;;
6735;SDS011;3405;50.576;12.364;2024-03-08T04:58:02;9.02;;;4.97;;
6735;SDS011;3405;50.576;12.364;2024-03-08T05:00:29;9.82;;;4.47;;
6735;SDS011;3405;50.576;12.364;2024-03-08T05:02:55;7.72;;;4.38;;
6735;SDS011;3405;50.576;12.364;2024-03-08T05:05:21;8.43;;;4.88;;
6735;SDS011;3405;50.576;12.364;2024-03-08T05:07:47;6.30;;;4.05;;
6735;SDS011;3405;50.576;12.364;2024-03-08T05:10:14;7.22;;;4.55;;
6735;SDS011;3405;50.576;12.364;2024-03-08T05:12:42;7.45;;;4.63;;
6735;SDS011;3405;50.576;12.364;2024-03-08T05:15:08;20.05;;;6.57;;
6735;SDS011;3405;50.576;12.364;2024-03-08T05:17:34;30.55;;;7.80;;
6735;SDS011;3405;50.576;12.364;2024-03-08T05:20:03;20.85;;;7.60;;
6735;SDS011;3405;50.576;12.364;2024-03-08T05:22:33;20.15;;;7.18;;
6735;SDS011;3405;50.576;12.364;2024-03-08T05:24:58;23.08;;;7.57;;
6735;SDS011;3405;50.576;12.364;2024-03-08T05:27:24;27.80;;;7.53;;
6735;SDS011;3405;50.576;12.364;2024-03-08T05:29:50;23.77;;;6.70;;
6735;SDS011;3405;50.576;12.364;2024-03-08T05:32:16;22.25;;;6.78;;
6735;SDS011;3405;50.576;12.364;2024-03-08T05:34:42;23.02;;;7.88;;
6735;SDS011;3405;50.576;12.364;2024-03-08T05:37:09;24.60;;;6.78;;
6735;SDS011;3405;50.576;12.364;2024-03-08T05:39:36;15.35;;;6.65;;
6735;SDS011;3405;50.576;12.364;2024-03-08T05:42:02;21.15;;;7.50;;
6735;SDS011;3405;50.576;12.364;2024-03-08T05:44:28;18.15;;;7.18;;
6735;SDS011;3405;50.576;12.364;2024-03-08T05:46:54;17.45;;;6.72;;
6735;SDS011;3405;50.576;12.364;2024-03-08T05:49:21;30.10;;;7.55;;
6735;SDS011;3405;50.576;12.364;2024-03-08T05:51:46;17.95;;;6.75;;
6735;SDS011;3405;50.576;12.364;2024-03-08T05:54:13;21.23;;;7.13;;
6735;SDS011;3405;50.576;12.364;2024-03-08T05:56:39;22.45;;;7.90;;
6735;SDS011;3405;50.576;12.364;2024-03-08T05:59:09;16.92;;;7.38;;
6735;SDS011;3405;50.576;12.364;2024-03-08T06:01:35;17.23;;;7.28;;
6735;SDS011;3405;50.576;12.364;2024-03-08T06:04:01;14.55;;;6.78;;
6735;SDS011;3405;50.576;12.364;2024-03-08T06:06:27;17.52;;;6.70;;
6735;SDS011;3405;50.576;12.364;2024-03-08T06:08:53;13.27;;;6.75;;
6735;SDS011;3405;50.576;12.364;2024-03-08T06:11:21;14.57;;;6.43;;
6735;SDS011;3405;50.576;12.364;2024-03-08T06:13:47;21.00;;;5.80;;
6735;SDS011;3405;50.576;12.364;2024-03-08T06:16:14;15.60;;;6.78;;
6735;SDS011;3405;50.576;12.364;2024-03-08T06:18:40;18.98;;;6.15;;
6735;SDS011;3405;50.576;12.364;2024-03-08T06:21:06;22.00;;;7.43;;
6735;SDS011;3405;50.576;12.364;2024-03-08T06:23:34;13.15;;;6.00;;
6735;SDS011;3405;50.576;12.364;2024-03-08T06:26:03;9.52;;;5.55;;
6735;SDS011;3405;50.576;12.364;2024-03-08T06:28:29;11.27;;;4.88;;
6735;SDS011;3405;50.576;12.364;2024-03-08T06:30:55;13.88;;;5.03;;
6735;SDS011;3405;50.576;12.364;2024-03-08T06:33:21;12.48;;;5.38;;
6735;SDS011;3405;50.576;12.364;2024-03-08T06:35:47;11.80;;;5.15;;
6735;SDS011;3405;50.576;12.364;2024-03-08T06:38:13;11.93;;;5.10;;
6735;SDS011;3405;50.576;12.364;2024-03-08T06:40:40;13.30;;;5.72;;
6735;SDS011;3405;50.576;12.364;2024-03-08T06:43:06;12.48;;;5.70;;
6735;SDS011;3405;50.576;12.364;2024-03-08T06:45:32;9.73;;;4.97;;
6735;SDS011;3405;50.576;12.364;2024-03-08T06:47:58;10.02;;;5.85;;
6735;SDS011;3405;50.576;12.364;2024-03-08T06:50:24;11.02;;;4.75;;
6735;SDS011;3405;50.576;12.364;2024-03-08T06:52:49;8.93;;;4.47;;
6735;SDS011;3405;50.576;12.364;2024-03-08T06:55:18;13.45;;;5.40;;
6735;SDS011;3405;50.576;12.364;2024-03-08T06:57:44;8.77;;;4.60;;
6735;SDS011;3405;50.576;12.364;2024-03-08T07:00:10;8.60;;;5.13;;
6735;SDS011;3405;50.576;12.364;2024-03-08T07:02:44;11.73;;;4.47;;
6735;SDS011;3405;50.576;12.364;2024-03-08T07:05:11;7.75;;;5.28;;
6735;SDS011;3405;50.576;12.364;2024-03-08T07:07:37;10.93;;;5.30;;
6735;SDS011;3405;50.576;12.364;2024-03-08T07:10:03;9.73;;;5.50;;
6735;SDS011;3405;50.576;12.364;2024-03-08T07:12:29;11.75;;;5.13;;
6735;SDS011;3405;50.576;12.364;2024-03-08T07:14:55;9.07;;;4.93;;
6735;SDS011;3405;50.576;12.364;2024-03-08T07:17:21;6.47;;;4.68;;
6735;SDS011;3405;50.576;12.364;2024-03-08T07:19:47;7.13;;;5.07;;
6735;SDS011;3405;50.576;12.364;2024-03-08T07:22:14;8.88;;;4.90;;
6735;SDS011;3405;50.576;12.364;2024-03-08T07:24:40;9.68;;;4.80;;
6735;SDS011;3405;50.576;12.364;2024-03-08T07:27:29;8.98;;;4.80;;
6735;SDS011;3405;50.576;12.364;2024-03-08T07:29:55;9.80;;;5.15;;
6735;SDS011;3405;50.576;12.364;2024-03-08T07:32:22;6.57;;;5.07;;
6735;SDS011;3405;50.576;12.364;2024-03-08T07:34:50;8.55;;;4.65;;
6735;SDS011;3405;50.576;12.364;2024-03-08T07:37:17;8.13;;;4.97;;
6735;SDS011;3405;50.576;12.364;2024-03-08T07:39:44;8.35;;;5.43;;
6735;SDS011;3405;50.576;12.364;2024-03-08T07:42:10;7.40;;;5.15;;
6735;SDS011;3405;50.576;12.364;2024-03-08T07:44:36;10.13;;;5.82;;
6735;SDS011;3405;50.576;12.364;2024-03-08T07:47:02;7.57;;;5.03;;
6735;SDS011;3405;50.576;12.364;2024-03-08T07:49:28;9.85;;;5.65;;
6735;SDS011;3405;50.576;12.364;2024-03-08T07:51:55;8.88;;;5.03;;
6735;SDS011;3405;50.576;12.364;2024-03-08T07:54:21;8.80;;;4.90;;
6735;SDS011;3405;50.576;12.364;2024-03-08T07:56:47;7.70;;;4.88;;
6735;SDS011;3405;50.576;12.364;2024-03-08T07:59:13;7.70;;;5.20;;
6735;SDS011;3405;50.576;12.364;2024-03-08T08:01:39;8.40;;;4.78;;
6735;SDS011;3405;50.576;12.364;2024-03-08T08:04:05;7.05;;;4.75;;
6735;SDS011;3405;50.576;12.364;2024-03-08T08:06:31;6.68;;;4.88;;
6735;SDS011;3405;50.576;12.364;2024-03-08T08:08:58;7.72;;;4.97;;
6735;SDS011;3405;50.576;12.364;2024-03-08T08:11:25;8.02;;;4.60;;
6735;SDS011;3405;50.576;12.364;2024-03-08T08:13:52;8.13;;;5.22;;
6735;SDS011;3405;50.576;12.364;2024-03-08T08:16:19;7.20;;;4.85;;
6735;SDS011;3405;50.576;12.364;2024-03-08T08:18:45;7.95;;;5.20;;
6735;SDS011;3405;50.576;12.364;2024-03-08T08:21:12;8.00;;;5.10;;
6735;SDS011;3405;50.576;12.364;2024-03-08T08:23:38;6.72;;;4.90;;
6735;SDS011;3405;50.576;12.364;2024-03-08T08:26:04;7.25;;;4.68;;
6735;SDS011;3405;50.576;12.364;2024-03-08T08:28:32;7.53;;;5.28;;
6735;SDS011;3405;50.576;12.364;2024-03-08T08:30:58;6.28;;;4.82;;
6735;SDS011;3405;50.576;12.364;2024-03-08T08:33:24;7.30;;;5.22;;
6735;SDS011;3405;50.576;12.364;2024-03-08T08:35:50;6.97;;;5.18;;
6735;SDS011;3405;50.576;12.364;2024-03-08T08:38:19;9.82;;;5.07;;
6735;SDS011;3405;50.576;12.364;2024-03-08T08:40:45;6.88;;;5.57;;
6735;SDS011;3405;50.576;12.364;2024-03-08T08:43:12;8.02;;;5.25;;
6735;SDS011;3405;50.576;12.364;2024-03-08T08:45:38;5.75;;;4.40;;
6735;SDS011;3405;50.576;12.364;2024-03-08T08:48:04;6.43;;;5.05;;
6735;SDS011;3405;50.576;12.364;2024-03-08T08:50:30;6.20;;;4.60;;
6735;SDS011;3405;50.576;12.364;2024-03-08T08:52:57;7.85;;;4.97;;
6735;SDS011;3405;50.576;12.364;2024-03-08T08:55:23;6.18;;;4.65;;
6735;SDS011;3405;50.576;12.364;2024-03-08T08:57:52;8.25;;;5.22;;
6735;SDS011;3405;50.576;12.364;2024-03-08T09:00:22;6.50;;;4.57;;
6735;SDS011;3405;50.576;12.364;2024-03-08T09:02:52;8.30;;;5.15;;
6735;SDS011;3405;50.576;12.364;2024-03-08T09:05:20;7.40;;;4.75;;
6735;SDS011;3405;50.576;12.364;2024-03-08T09:07:46;6.70;;;4.35;;
6735;SDS011;3405;50.576;12.364;2024-03-08T09:10:12;6.28;;;4.90;;
6735;SDS011;3405;50.576;12.364;2024-03-08T09:12:39;7.90;;;5.40;;
6735;SDS011;3405;50.576;12.364;2024-03-08T09:15:05;5.55;;;4.45;;
6735;SDS011;3405;50.576;12.364;2024-03-08T09:17:36;7.93;;;4.97;;
6735;SDS011;3405;50.576;12.364;2024-03-08T09:20:05;6.90;;;4.85;;
6735;SDS011;3405;50.576;12.364;2024-03-08T09:22:31;6.22;;;4.57;;
6735;SDS011;3405;50.576;12.364;2024-03-08T09:24:57;5.53;;;4.93;;
6735;SDS011;3405;50.576;12.364;2024-03-08T09:27:23;7.55;;;4.90;;
6735;SDS011;3405;50.576;12.364;2024-03-08T09:29:49;5.35;;;4.47;;
6735;SDS011;3405;50.576;12.364;2024-03-08T09:32:15;6.13;;;4.65;;
6735;SDS011;3405;50.576;12.364;2024-03-08T09:34:41;7.18;;;5.10;;
6735;SDS011;3405;50.576;12.364;2024-03-08T09:37:07;6.68;;;4.80;;
6735;SDS011;3405;50.576;12.364;2024-03-08T09:39:33;5.95;;;4.05;;
6735;SDS011;3405;50.576;12.364;2024-03-08T09:42:00;5.55;;;4.40;;
6735;SDS011;3405;50.576;12.364;2024-03-08T09:44:26;4.85;;;4.10;;
6735;SDS011;3405;50.576;12.364;2024-03-08T09:46:53;6.93;;;4.80;;
6735;SDS011;3405;50.576;12.364;2024-03-08T09:49:20;6.45;;;4.75;;
6735;SDS011;3405;50.576;12.364;2024-03-08T09:51:46;5.82;;;4.68;;
6735;SDS011;3405;50.576;12.364;2024-03-08T09:54:12;5.75;;;4.68;;
6735;SDS011;3405;50.576;12.364;2024-03-08T09:56:39;5.90;;;4.32;;
6735;SDS011;3405;50.576;12.364;2024-03-08T09:59:06;6.45;;;4.68;;
6735;SDS011;3405;50.576;12.364;2024-03-08T10:02:05;5.30;;;4.38;;
6735;SDS011;3405;50.576;12.364;2024-03-08T10:04:31;5.75;;;4.53;;
6735;SDS011;3405;50.576;12.364;2024-03-08T10:06:58;6.93;;;4.53;;
6735;SDS011;3405;50.576;12.364;2024-03-08T10:09:24;5.38;;;4.32;;
6735;SDS011;3405;50.576;12.364;2024-03-08T10:11:58;5.88;;;4.82;;
6735;SDS011;3405;50.576;12.364;2024-03-08T10:14:24;6.25;;;4.43;;
6735;SDS011;3405;50.576;12.364;2024-03-08T10:16:51;6.57;;;4.50;;
6735;SDS011;3405;50.576;12.364;2024-03-08T10:19:18;5.47;;;4.38;;
6735;SDS011;3405;50.576;12.364;2024-03-08T10:21:50;5.95;;;4.18;;
6735;SDS011;3405;50.576;12.364;2024-03-08T10:24:21;5.55;;;4.47;;
6735;SDS011;3405;50.576;12.364;2024-03-08T10:26:48;7.10;;;4.78;;
6735;SDS011;3405;50.576;12.364;2024-03-08T10:29:16;6.82;;;4.40;;
6735;SDS011;3405;50.576;12.364;2024-03-08T10:31:44;5.97;;;4.32;;
6735;SDS011;3405;50.576;12.364;2024-03-08T10:34:10;5.38;;;4.45;;
6735;SDS011;3405;50.576;12.364;2024-03-08T10:36:36;5.20;;;4.30;;
6735;SDS011;3405;50.576;12.364;2024-03-08T10:39:07;5.40;;;4.05;;
6735;SDS011;3405;50.576;12.364;2024-03-08T10:41:37;4.70;;;3.95;;
6735;SDS011;3405;50.576;12.364;2024-03-08T10:49:16;4.22;;;3.83;;
6735;SDS011;3405;50.576;12.364;2024-03-08T10:51:42;6.25;;;4.05;;
6735;SDS011;3405;50.576;12.364;2024-03-08T10:54:09;5.43;;;4.25;;
6735;SDS011;3405;50.576;12.364;2024-03-08T10:56:36;4.75;;;3.85;;
6735;SDS011;3405;50.576;12.364;2024-03-08T10:59:02;4.65;;;3.92;;
6735;SDS011;3405;50.576;12.364;2024-03-08T11:01:29;6.22;;;4.20;;
6735;SDS011;3405;50.576;12.364;2024-03-08T11:03:55;4.45;;;3.78;;
6735;SDS011;3405;50.576;12.364;2024-03-08T11:06:22;5.03;;;4.00;;
6735;SDS011;3405;50.576;12.364;2024-03-08T11:08:49;3.95;;;3.55;;
6735;SDS011;3405;50.576;12.364;2024-03-08T11:11:28;4.47;;;3.67;;
6735;SDS011;3405;50.576;12.364;2024-03-08T11:13:59;4.82;;;3.88;;
6735;SDS011;3405;50.576;12.364;2024-03-08T11:21:37;5.13;;;3.90;;
6735;SDS011;3405;50.576;12.364;2024-03-08T11:24:07;6.30;;;4.50;;
6735;SDS011;3405;50.576;12.364;2024-03-08T11:26:33;4.78;;;3.40;;
6735;SDS011;3405;50.576;12.364;2024-03-08T11:31:45;4.38;;;3.65;;
6735;SDS011;3405;50.576;12.364;2024-03-08T11:34:15;4.43;;;3.70;;
6735;SDS011;3405;50.576;12.364;2024-03-08T11:36:41;4.40;;;3.55;;
6735;SDS011;3405;50.576;12.364;2024-03-08T11:39:07;5.88;;;4.00;;
6735;SDS011;3405;50.576;12.364;2024-03-08T11:41:39;3.88;;;3.33;;
6735;SDS011;3405;50.576;12.364;2024-03-08T11:44:06;4.90;;;3.50;;
6735;SDS011;3405;50.576;12.364;2024-03-08T11:46:34;4.20;;;3.55;;
6735;SDS011;3405;50.576;12.364;2024-03-08T11:49:00;3.92;;;3.38;;
6735;SDS011;3405;50.576;12.364;2024-03-08T11:51:28;4.10;;;3.30;;
6735;SDS011;3405;50.576;12.364;2024-03-08T11:53:55;5.90;;;3.60;;
6735;SDS011;3405;50.576;12.364;2024-03-08T11:56:21;4.20;;;3.45;;
6735;SDS011;3405;50.576;12.364;2024-03-08T11:58:53;3.85;;;3.42;;
6735;SDS011;3405;50.576;12.364;2024-03-08T12:01:23;4.57;;;3.90;;
6735;SDS011;3405;50.576;12.364;2024-03-08T12:03:53;4.50;;;3.75;;
6735;SDS011;3405;50.576;12.364;2024-03-08T12:06:19;4.03;;;3.35;;
6735;SDS011;3405;50.576;12.364;2024-03-08T12:08:46;4.43;;;3.53;;
6735;SDS011;3405;50.576;12.364;2024-03-08T12:11:14;4.15;;;3.75;;
6735;SDS011;3405;50.576;12.364;2024-03-08T12:13:41;4.30;;;3.90;;
6735;SDS011;3405;50.576;12.364;2024-03-08T12:16:07;3.95;;;3.55;;
6735;SDS011;3405;50.576;12.364;2024-03-08T12:18:35;4.50;;;3.03;;
6735;SDS011;3405;50.576;12.364;2024-03-08T12:23:36;3.70;;;3.30;;
6735;SDS011;3405;50.576;12.364;2024-03-08T12:26:17;13.40;;;3.67;;
6735;SDS011;3405;50.576;12.364;2024-03-08T12:28:44;5.60;;;3.50;;
6735;SDS011;3405;50.576;12.364;2024-03-08T12:31:13;7.05;;;3.90;;
6735;SDS011;3405;50.576;12.364;2024-03-08T12:36:16;5.50;;;3.92;;
6735;SDS011;3405;50.576;12.364;2024-03-08T12:38:43;4.63;;;3.65;;
6735;SDS011;3405;50.576;12.364;2024-03-08T12:41:12;6.85;;;3.95;;
6735;SDS011;3405;50.576;12.364;2024-03-08T12:43:38;10.38;;;3.75;;
6735;SDS011;3405;50.576;12.364;2024-03-08T12:46:04;8.63;;;4.20;;
6735;SDS011;3405;50.576;12.364;2024-03-08T12:48:33;4.93;;;3.92;;
6735;SDS011;3405;50.576;12.364;2024-03-08T12:51:00;6.95;;;3.80;;
6735;SDS011;3405;50.576;12.364;2024-03-08T12:53:26;6.57;;;4.28;;
6735;SDS011;3405;50.576;12.364;2024-03-08T12:55:53;6.25;;;3.92;;
6735;SDS011;3405;50.576;12.364;2024-03-08T12:58:21;5.18;;;4.00;;
6735;SDS011;3405;50.576;12.364;2024-03-08T13:00:47;4.72;;;3.75;;
6735;SDS011;3405;50.576;12.364;2024-03-08T13:03:14;6.63;;;3.88;;
6735;SDS011;3405;50.576;12.364;2024-03-08T13:05:40;5.47;;;3.60;;
6735;SDS011;3405;50.576;12.364;2024-03-08T13:08:07;5.68;;;4.20;;
6735;SDS011;3405;50.576;12.364;2024-03-08T13:10:38;4.97;;;4.10;;
6735;SDS011;3405;50.576;12.364;2024-03-08T13:13:05;6.13;;;4.25;;
6735;SDS011;3405;50.576;12.364;2024-03-08T13:15:30;6.30;;;4.50;;
6735;SDS011;3405;50.576;12.364;2024-03-08T13:17:58;5.68;;;4.55;;
6735;SDS011;3405;50.576;12.364;2024-03-08T13:20:25;5.97;;;4.50;;
6735;SDS011;3405;50.576;12.364;2024-03-08T13:22:53;7.75;;;4.28;;
6735;SDS011;3405;50.576;12.364;2024-03-08T13:25:20;7.22;;;4.57;;
6735;SDS011;3405;50.576;12.364;2024-03-08T13:27:46;4.97;;;4.10;;
6735;SDS011;3405;50.576;12.364;2024-03-08T13:30:12;4.63;;;4.05;;
6735;SDS011;3405;50.576;12.364;2024-03-08T13:32:40;5.30;;;4.15;;
6735;SDS011;3405;50.576;12.364;2024-03-08T13:35:08;5.30;;;4.07;;
6735;SDS011;3405;50.576;12.364;2024-03-08T13:37:49;6.47;;;4.25;;
6735;SDS011;3405;50.576;12.364;2024-03-08T13:40:15;6.45;;;4.45;;
6735;SDS011;3405;50.576;12.364;2024-03-08T13:42:43;6.28;;;4.78;;
6735;SDS011;3405;50.576;12.364;2024-03-08T13:45:09;8.13;;;5.78;;
6735;SDS011;3405;50.576;12.364;2024-03-08T13:47:39;6.78;;;5.78;;
6735;SDS011;3405;50.576;12.364;2024-03-08T13:50:06;6.88;;;5.25;;
6735;SDS011;3405;50.576;12.364;2024-03-08T13:52:36;6.65;;;4.88;;
6735;SDS011;3405;50.576;12.364;2024-03-08T13:55:03;7.38;;;5.07;;
6735;SDS011;3405;50.576;12.364;2024-03-08T13:57:29;6.18;;;4.82;;
6735;SDS011;3405;50.576;12.364;2024-03-08T13:59:56;6.60;;;4.60;;
6735;SDS011;3405;50.576;12.364;2024-03-08T14:02:22;7.68;;;4.90;;
6735;SDS011;3405;50.576;12.364;2024-03-08T14:04:52;6.40;;;4.90;;
6735;SDS011;3405;50.576;12.364;2024-03-08T14:07:19;7.38;;;5.07;;
6735;SDS011;3405;50.576;12.364;2024-03-08T14:09:45;6.00;;;4.60;;
6735;SDS011;3405;50.576;12.364;2024-03-08T14:12:11;7.28;;;5.05;;
6735;SDS011;3405;50.576;12.364;2024-03-08T14:14:38;8.00;;;4.85;;
6735;SDS011;3405;50.576;12.364;2024-03-08T14:17:04;5.80;;;4.50;;
6735;SDS011;3405;50.576;12.364;2024-03-08T14:19:32;6.57;;;4.90;;
6735;SDS011;3405;50.576;12.364;2024-03-08T14:21:59;6.57;;;4.90;;
6735;SDS011;3405;50.576;12.364;2024-03-08T14:24:25;6.00;;;5.10;;
6735;SDS011;3405;50.576;12.364;2024-03-08T14:26:51;19.15;;;6.13;;
6735;SDS011;3405;50.576;12.364;2024-03-08T14:29:17;23.15;;;6.03;;
6735;SDS011;3405;50.576;12.364;2024-03-08T14:31:43;15.18;;;5.72;;
6735;SDS011;3405;50.576;12.364;2024-03-08T14:34:10;12.23;;;5.28;;
6735;SDS011;3405;50.576;12.364;2024-03-08T14:36:36;11.90;;;5.07;;
6735;SDS011;3405;50.576;12.364;2024-03-08T14:39:03;7.30;;;4.50;;
6735;SDS011;3405;50.576;12.364;2024-03-08T14:41:29;9.93;;;5.03;;
6735;SDS011;3405;50.576;12.364;2024-03-08T14:43:55;10.07;;;4.85;;
6735;SDS011;3405;50.576;12.364;2024-03-08T14:46:22;15.38;;;4.68;;
6735;SDS011;3405;50.576;12.364;2024-03-08T14:48:48;13.43;;;5.35;;
6735;SDS011;3405;50.576;12.364;2024-03-08T14:51:16;10.02;;;4.63;;
6735;SDS011;3405;50.576;12.364;2024-03-08T14:53:44;18.95;;;5.00;;
6735;SDS011;3405;50.576;12.364;2024-03-08T14:56:11;11.48;;;5.63;;
6735;SDS011;3405;50.576;12.364;2024-03-08T14:58:44;14.35;;;5.85;;
6735;SDS011;3405;50.576;12.364;2024-03-08T15:01:11;8.73;;;4.40;;
6735;SDS011;3405;50.576;12.364;2024-03-08T15:03:40;12.63;;;5.25;;
6735;SDS011;3405;50.576;12.364;2024-03-08T15:06:07;8.45;;;4.40;;
6735;SDS011;3405;50.576;12.364;2024-03-08T15:08:37;15.73;;;5.35;;
6735;SDS011;3405;50.576;12.364;2024-03-08T15:11:04;8.65;;;4.55;;
6735;SDS011;3405;50.576;12.364;2024-03-08T15:13:30;13.38;;;4.35;;
6735;SDS011;3405;50.576;12.364;2024-03-08T15:16:18;5.57;;;4.30;;
6735;SDS011;3405;50.576;12.364;2024-03-08T15:18:45;7.68;;;5.00;;